createdAt,value
2023-03-26T00:03:56.949Z,102044.34
2023-03-26T00:09:00.670Z,102054.13
2023-03-26T00:14:04.350Z,102037.91
2023-03-26T00:19:09.790Z,102037.94
2023-03-26T00:24:15.830Z,102025.25
2023-03-26T00:29:19.444Z,102031.38
2023-03-26T00:34:24.786Z,102026.38
2023-03-26T00:39:28.670Z,102025.13
2023-03-26T00:44:32.414Z,102030.47
2023-03-26T00:49:37.776Z,102012.34
2023-03-26T00:54:41.543Z,102013.53
2023-03-26T00:59:45.209Z,101998.75
2023-03-26T01:04:55.966Z,102010.44
2023-03-26T01:10:00.814Z,102003.69
2023-03-26T01:15:05.342Z,102006.06
2023-03-26T01:20:16.508Z,102011.13
2023-03-26T01:25:25.993Z,101993.88
2023-03-26T01:30:39.637Z,102010.19
2023-03-26T01:35:52.543Z,102017.66
2023-03-26T01:41:05.074Z,102020.25
2023-03-26T01:46:11.746Z,102007.47
2023-03-26T01:51:26.255Z,102012.44
2023-03-26T01:56:40.261Z,102007.34
2023-03-26T02:01:49.130Z,102008.78
2023-03-26T02:06:58.630Z,102016.19
2023-03-26T02:12:05.658Z,102001.59
2023-03-26T02:17:09.515Z,101993.69
2023-03-26T02:22:13.806Z,101987.03
2023-03-26T02:27:19.080Z,102002.97
2023-03-26T02:32:23.632Z,102004.28
2023-03-26T02:37:27.309Z,102001.94
2023-03-26T02:42:32.618Z,102011.56
2023-03-26T02:47:36.360Z,102011.53
2023-03-26T02:52:40.086Z,102003.69
2023-03-26T02:57:46.360Z,102019.31
2023-03-26T03:02:49.305Z,102028.81
2023-03-26T03:07:53.063Z,102041.88
2023-03-26T03:12:58.370Z,102039.31
2023-03-26T03:18:02.114Z,102048.13
2023-03-26T03:23:05.818Z,102037.69
2023-03-26T03:28:11.381Z,102055.03
2023-03-26T03:33:15.016Z,102060.25
2023-03-26T03:38:19.439Z,102053.28
2023-03-26T03:43:24.896Z,102068.81
2023-03-26T03:48:28.874Z,102067.53
2023-03-26T03:53:32.643Z,102077.69
2023-03-26T03:58:38.039Z,102082.41
2023-03-26T04:03:41.912Z,102075.97
2023-03-26T04:08:45.814Z,102082.00
2023-03-26T04:13:51.097Z,102082.06
2023-03-26T04:18:54.761Z,102079.38
2023-03-26T04:23:58.421Z,102080.41
2023-03-26T04:29:06.774Z,102080.97
2023-03-26T04:34:14.802Z,102088.97
2023-03-26T04:39:18.732Z,102078.03
2023-03-26T04:44:25.398Z,102079.78
2023-03-26T04:49:29.020Z,102083.38
2023-03-26T04:54:32.676Z,102099.03
2023-03-26T04:59:37.996Z,102106.75
2023-03-26T05:04:41.852Z,102111.22
2023-03-26T05:09:45.681Z,102119.22
2023-03-26T05:14:50.987Z,102120.16
2023-03-26T05:19:54.801Z,102118.47
2023-03-26T05:24:58.413Z,102133.19
2023-03-26T05:30:05.508Z,102113.19
2023-03-26T05:35:09.828Z,102108.94
2023-03-26T05:40:14.147Z,102122.03
2023-03-26T05:45:19.573Z,102116.81
2023-03-26T05:50:23.838Z,102118.50
2023-03-26T05:55:27.480Z,102114.97
2023-03-26T06:00:32.754Z,102116.69
2023-03-26T06:05:36.671Z,102123.66
2023-03-26T06:10:40.402Z,102115.81
2023-03-26T06:15:45.842Z,102110.50
2023-03-26T06:20:49.667Z,102119.09
2023-03-26T06:25:53.328Z,102112.00
2023-03-26T06:31:01.260Z,102121.44
2023-03-26T06:36:05.460Z,102111.03
2023-03-26T06:41:09.373Z,102107.53
2023-03-26T06:46:14.719Z,102107.44
2023-03-26T06:51:18.621Z,102098.66
2023-03-26T06:56:22.402Z,102100.16
2023-03-26T07:01:27.740Z,102099.78
2023-03-26T07:06:31.407Z,102072.75
2023-03-26T07:11:35.769Z,102101.53
2023-03-26T07:16:41.136Z,102119.03
2023-03-26T07:21:45.319Z,102140.78
2023-03-26T07:26:57.336Z,102137.28
2023-03-26T07:32:10.228Z,102142.53
2023-03-26T07:37:24.315Z,102130.38
2023-03-26T07:42:46.761Z,102145.78
2023-03-26T07:47:52.606Z,102150.09
2023-03-26T07:52:56.770Z,102158.00
2023-03-26T07:58:14.822Z,102155.28
2023-03-26T08:03:46.786Z,102157.06
2023-03-26T08:08:54.777Z,102164.75
2023-03-26T08:14:09.414Z,102144.81
2023-03-26T08:19:34.982Z,102141.38
2023-03-26T08:24:44.672Z,102141.38
2023-03-26T08:29:55.427Z,102148.31
2023-03-26T08:35:00.866Z,102137.91
2023-03-26T08:40:04.655Z,102127.53
2023-03-26T08:45:39.553Z,102122.25
2023-03-26T08:51:22.699Z,102110.88
2023-03-26T08:56:30.342Z,102111.66
2023-03-26T09:02:06.452Z,102102.09
2023-03-26T09:07:34.375Z,102113.22
2023-03-26T09:13:17.745Z,102115.00
2023-03-26T09:18:49.630Z,102127.16
2023-03-26T09:24:21.629Z,102124.53
2023-03-26T09:30:05.917Z,102118.34
2023-03-26T09:35:18.142Z,102111.31
2023-03-26T09:40:35.543Z,102108.75
2023-03-26T09:51:47.076Z,102124.28
2023-03-26T09:56:59.370Z,102131.25
2023-03-26T10:02:46.314Z,102120.88
2023-03-26T10:08:07.425Z,102130.25
2023-03-26T10:13:24.475Z,102134.53
2023-03-26T10:18:38.342Z,102133.66
2023-03-26T10:24:02.449Z,102121.47
2023-03-26T10:29:30.358Z,102114.59
2023-03-26T10:34:50.414Z,102124.00
2023-03-26T10:40:16.922Z,102131.84
2023-03-26T10:45:39.681Z,102133.47
2023-03-26T10:51:07.914Z,102136.84
2023-03-26T10:56:22.833Z,102143.72
2023-03-26T11:01:41.189Z,102135.94
2023-03-26T11:06:52.112Z,102130.72
2023-03-26T11:12:02.518Z,102126.31
2023-03-26T11:17:41.445Z,102135.78
2023-03-26T11:22:59.548Z,102134.09
2023-03-26T11:28:16.340Z,102130.53
2023-03-26T11:33:25.329Z,102129.66
2023-03-26T11:38:35.073Z,102126.19
2023-03-26T11:43:38.733Z,102119.25
2023-03-26T11:48:47.672Z,102119.19
2023-03-26T11:53:51.432Z,102135.63
2023-03-26T11:59:02.308Z,102136.44
2023-03-26T12:04:12.267Z,102138.19
2023-03-26T12:09:19.396Z,102134.72
2023-03-26T12:14:25.424Z,102137.34
2023-03-26T12:19:37.697Z,102129.53
2023-03-26T12:24:41.317Z,102136.44
2023-03-26T12:29:44.968Z,102145.94
2023-03-26T12:34:51.327Z,102137.28
2023-03-26T12:40:10.313Z,102140.75
2023-03-26T12:45:15.793Z,102140.75
2023-03-26T12:50:34.258Z,102138.94
2023-03-26T12:55:43.943Z,102136.25
2023-03-26T13:00:57.309Z,102142.38
2023-03-26T13:06:24.710Z,102143.25
2023-03-26T13:11:35.352Z,102139.63
2023-03-26T13:16:47.194Z,102149.16
2023-03-26T13:22:05.161Z,102139.56
2023-03-26T13:27:31.776Z,102138.66
2023-03-26T13:32:46.960Z,102151.03
2023-03-26T13:37:59.451Z,102149.53
2023-03-26T13:43:23.191Z,102166.00
2023-03-26T13:48:31.055Z,102157.19
2023-03-26T13:53:47.976Z,102163.16
2023-03-26T13:58:56.994Z,102169.09
2023-03-26T14:04:08.788Z,102170.03
2023-03-26T14:09:19.764Z,102169.13
2023-03-26T14:14:33.362Z,102170.97
2023-03-26T14:20:11.145Z,102178.25
2023-03-26T14:25:40.321Z,102193.25
2023-03-26T14:30:55.144Z,102195.00
2023-03-26T14:36:05.374Z,102201.56
2023-03-26T14:41:23.985Z,102206.50
2023-03-26T14:46:47.007Z,102210.50
2023-03-26T14:52:02.228Z,102222.16
2023-03-26T14:57:42.790Z,102224.19
2023-03-26T15:03:17.982Z,102245.63
2023-03-26T15:09:07.320Z,102229.63
2023-03-26T15:14:42.475Z,102223.16
2023-03-26T15:20:32.508Z,102233.88
2023-03-26T15:26:12.975Z,102243.69
2023-03-26T15:31:54.283Z,102248.22
2023-03-26T15:37:36.315Z,102244.78
2023-03-26T15:42:54.062Z,102236.03
2023-03-26T15:48:32.266Z,102242.16
2023-03-26T15:53:44.442Z,102247.34
2023-03-26T15:58:56.321Z,102241.22
2023-03-26T16:04:13.916Z,102245.28
2023-03-26T16:09:49.225Z,102240.47
2023-03-26T16:15:24.256Z,102235.78
2023-03-26T16:20:33.687Z,102243.47
2023-03-26T16:25:55.170Z,102251.47
2023-03-26T16:31:37.280Z,102248.44
2023-03-26T16:36:46.897Z,102246.22
2023-03-26T16:42:06.153Z,102244.97
2023-03-26T16:47:20.519Z,102247.88
2023-03-26T16:52:36.277Z,102258.59
2023-03-26T16:57:48.749Z,102251.13
2023-03-26T17:02:58.201Z,102256.88
2023-03-26T17:08:13.694Z,102257.06
2023-03-26T17:13:23.694Z,102254.53
2023-03-26T17:18:36.497Z,102253.50
2023-03-26T17:24:02.535Z,102259.16
2023-03-26T17:29:23.229Z,102261.22
2023-03-26T17:34:59.853Z,102263.09
2023-03-26T17:40:51.486Z,102262.25
2023-03-26T17:46:03.385Z,102261.53
2023-03-26T17:51:29.041Z,102263.81
2023-03-26T17:56:36.796Z,102255.44
2023-03-26T18:01:42.956Z,102253.50
2023-03-26T18:06:57.173Z,102251.09
2023-03-26T18:12:39.285Z,102255.41
2023-03-26T18:18:07.242Z,102245.97
2023-03-26T18:23:17.899Z,102256.06
2023-03-26T18:28:32.060Z,102252.72
2023-03-26T18:33:43.244Z,102248.22
2023-03-26T18:38:47.182Z,102253.44
2023-03-26T18:43:52.591Z,102249.97
2023-03-26T18:48:56.395Z,102252.31
2023-03-26T18:54:03.907Z,102243.22
2023-03-26T18:59:25.684Z,102250.31
2023-03-26T19:04:31.261Z,102241.53
2023-03-26T19:09:35.417Z,102235.50
2023-03-26T19:14:55.995Z,102236.03
2023-03-26T19:19:59.714Z,102242.88
2023-03-26T19:25:06.507Z,102237.63
2023-03-26T19:30:25.780Z,102221.78
2023-03-26T19:35:36.798Z,102224.16
2023-03-26T19:40:43.580Z,102223.19
2023-03-26T19:46:04.953Z,102223.31
2023-03-26T19:51:21.133Z,102219.50
2023-03-26T19:56:24.049Z,102210.81
2023-03-26T20:01:31.129Z,102208.59
2023-03-26T20:06:43.309Z,102199.75
2023-03-26T20:11:47.619Z,102203.50
2023-03-26T20:16:53.201Z,102195.22
2023-03-26T20:21:57.256Z,102190.22
2023-03-26T20:27:00.900Z,102192.91
2023-03-26T20:32:07.738Z,102185.09
2023-03-26T20:37:11.422Z,102185.75
2023-03-26T20:42:17.659Z,102170.91
2023-03-26T20:47:23.957Z,102181.03
2023-03-26T20:52:27.674Z,102180.53
2023-03-26T20:57:31.307Z,102157.63
2023-03-26T21:02:36.699Z,102157.78
2023-03-26T21:07:40.809Z,102152.09
2023-03-26T21:12:49.660Z,102161.94
2023-03-26T21:17:55.873Z,102155.16
2023-03-26T21:23:08.640Z,102151.41
2023-03-26T21:28:32.009Z,102143.00
2023-03-26T21:33:45.455Z,102127.41
2023-03-26T21:38:49.624Z,102123.81
2023-03-26T21:43:53.319Z,102107.69
2023-03-26T21:48:59.206Z,102095.91
2023-03-26T21:54:02.339Z,102094.84
2023-03-26T21:59:18.791Z,102090.41
2023-03-26T22:04:34.182Z,102097.69
2023-03-26T22:09:38.369Z,102086.84
2023-03-26T22:14:42.086Z,102093.50
2023-03-26T22:19:47.403Z,102085.34
2023-03-26T22:24:51.005Z,102087.06
2023-03-26T22:29:54.647Z,102075.22
2023-03-26T22:34:59.969Z,102066.91
2023-03-26T22:40:03.738Z,102067.44
2023-03-26T22:45:08.776Z,102072.75
2023-03-26T22:50:14.216Z,102070.88
2023-03-26T22:55:29.081Z,102070.94
2023-03-26T23:00:33.610Z,102070.91
2023-03-26T23:05:39.168Z,102065.31
2023-03-26T23:10:43.284Z,102063.50
2023-03-26T23:15:48.744Z,102065.56
2023-03-26T23:20:55.143Z,102063.38
2023-03-26T23:25:59.985Z,102068.31
2023-03-26T23:31:05.470Z,102052.44
2023-03-26T23:36:11.536Z,102048.84
2023-03-26T23:41:15.710Z,102033.75
2023-03-26T23:46:19.402Z,102026.66
2023-03-26T23:51:24.701Z,102040.31
2023-03-26T23:56:28.365Z,102035.63
